createdAt,value
2022-10-05T00:00:47.960Z,4.00
2022-10-05T00:03:14.771Z,4.10
2022-10-05T00:05:42.217Z,3.90
2022-10-05T00:08:19.396Z,4.20
2022-10-05T00:10:47.256Z,4.10
2022-10-05T00:13:23.036Z,4.77
2022-10-05T00:15:50.777Z,4.90
2022-10-05T00:18:21.742Z,4.40
2022-10-05T00:20:49.388Z,3.80
2022-10-05T00:23:31.854Z,4.97
2022-10-05T00:26:26.301Z,4.43
2022-10-05T00:28:54.469Z,4.30
2022-10-05T00:31:26.756Z,4.33
2022-10-05T00:33:55.075Z,4.43
2022-10-05T00:36:21.995Z,4.97
2022-10-05T00:38:48.829Z,4.90
2022-10-05T00:41:29.786Z,4.90
2022-10-05T00:44:18.323Z,4.40
2022-10-05T00:47:03.900Z,5.03
2022-10-05T00:49:36.173Z,4.50
2022-10-05T00:52:45.667Z,4.17
2022-10-05T00:55:39.831Z,4.60
2022-10-05T00:58:25.139Z,4.60
2022-10-05T01:00:59.216Z,4.43
2022-10-05T01:03:40.129Z,4.70
2022-10-05T01:06:36.846Z,4.50
2022-10-05T01:09:19.309Z,4.63
2022-10-05T01:11:51.004Z,4.97
2022-10-05T01:15:11.271Z,5.27
2022-10-05T01:17:49.674Z,4.90
2022-10-05T01:20:39.826Z,4.87
2022-10-05T01:23:51.445Z,4.70
2022-10-05T01:27:15.340Z,5.17
2022-10-05T01:30:03.242Z,5.07
2022-10-05T01:32:47.823Z,5.03
2022-10-05T01:35:42.131Z,5.50
2022-10-05T01:38:28.443Z,5.30
2022-10-05T01:41:19.635Z,5.17
2022-10-05T01:44:04.928Z,5.13
2022-10-05T01:46:46.441Z,5.13
2022-10-05T01:49:35.015Z,5.00
2022-10-05T01:52:26.770Z,5.57
2022-10-05T01:55:27.072Z,4.70
2022-10-05T01:58:06.808Z,5.90
2022-10-05T02:00:43.718Z,5.20
2022-10-05T02:03:26.617Z,6.30
2022-10-05T02:05:58.501Z,5.77
2022-10-05T02:08:38.532Z,5.80
2022-10-05T02:11:11.906Z,5.93
2022-10-05T02:13:55.847Z,5.80
2022-10-05T02:16:44.586Z,5.40
2022-10-05T02:19:35.223Z,4.87
2022-10-05T02:22:17.782Z,6.27
2022-10-05T02:24:53.173Z,5.70
2022-10-05T02:27:27.322Z,5.50
2022-10-05T02:29:59.640Z,6.03
2022-10-05T02:32:32.538Z,5.40
2022-10-05T02:35:09.276Z,5.90
2022-10-05T02:38:01.320Z,5.73
2022-10-05T02:40:39.714Z,5.67
2022-10-05T02:43:30.808Z,5.87
2022-10-05T02:46:21.478Z,5.90
2022-10-05T02:49:06.971Z,6.20
2022-10-05T02:51:40.273Z,6.17
2022-10-05T02:54:19.466Z,6.47
2022-10-05T02:56:59.536Z,6.23
2022-10-05T02:59:40.167Z,5.70
2022-10-05T03:02:21.335Z,5.60
2022-10-05T03:05:00.134Z,5.73
2022-10-05T03:07:43.580Z,5.87
2022-10-05T03:10:25.969Z,5.03
2022-10-05T03:13:08.801Z,6.80
2022-10-05T03:15:48.836Z,5.80
2022-10-05T03:18:46.344Z,5.73
2022-10-05T03:21:32.349Z,6.00
2022-10-05T03:24:20.391Z,5.60
2022-10-05T03:27:02.436Z,5.43
2022-10-05T03:29:41.353Z,5.87
2022-10-05T03:32:33.193Z,5.50
2022-10-05T03:35:20.490Z,5.50
2022-10-05T03:37:53.736Z,5.53
2022-10-05T03:40:36.690Z,5.23
2022-10-05T03:43:03.327Z,6.57
2022-10-05T03:45:53.602Z,5.40
2022-10-05T03:48:34.687Z,5.20
2022-10-05T03:51:21.003Z,5.10
2022-10-05T03:53:52.752Z,6.07
2022-10-05T03:56:37.319Z,5.53
2022-10-05T03:59:21.423Z,4.90
2022-10-05T04:02:11.576Z,4.97
2022-10-05T04:04:50.914Z,5.97
2022-10-05T04:07:56.652Z,5.67
2022-10-05T04:10:46.957Z,5.60
2022-10-05T04:13:37.426Z,5.00
2022-10-05T04:16:15.607Z,5.43
2022-10-05T04:18:50.397Z,5.70
2022-10-05T04:21:52.423Z,5.40
2022-10-05T04:24:59.679Z,6.40
2022-10-05T04:27:39.683Z,6.67
2022-10-05T04:30:14.486Z,5.93
2022-10-05T04:32:57.311Z,5.17
2022-10-05T04:36:11.594Z,6.10
2022-10-05T04:38:54.463Z,5.93
2022-10-05T04:41:29.907Z,6.13
2022-10-05T04:44:11.648Z,5.47
2022-10-05T04:46:44.762Z,5.57
2022-10-05T04:49:23.894Z,5.80
2022-10-05T04:52:20.397Z,5.70
2022-10-05T04:55:25.218Z,5.60
2022-10-05T04:58:10.389Z,5.57
2022-10-05T05:00:49.401Z,5.90
2022-10-05T05:03:36.508Z,5.40
2022-10-05T05:06:23.475Z,6.13
2022-10-05T05:09:32.187Z,6.00
2022-10-05T05:12:11.073Z,5.10
2022-10-05T05:15:02.476Z,5.10
2022-10-05T05:17:48.175Z,5.03
2022-10-05T05:20:20.651Z,4.83
2022-10-05T05:23:00.433Z,4.70
2022-10-05T05:25:35.943Z,4.73
2022-10-05T05:28:16.860Z,4.85
2022-10-05T05:30:50.365Z,4.57
2022-10-05T05:33:33.238Z,4.30
2022-10-05T05:36:05.863Z,3.93
2022-10-05T05:39:00.264Z,3.70
2022-10-05T05:42:13.211Z,4.00
2022-10-05T05:44:52.728Z,4.07
2022-10-05T05:47:41.064Z,3.77
2022-10-05T05:50:27.968Z,3.77
2022-10-05T05:53:05.660Z,4.10
2022-10-05T05:55:55.997Z,3.90
2022-10-05T05:58:29.053Z,4.07
2022-10-05T06:01:25.149Z,3.30
2022-10-05T06:04:05.236Z,3.40
2022-10-05T06:06:35.781Z,3.30
2022-10-05T06:09:11.267Z,3.97
2022-10-05T06:11:45.703Z,3.90
2022-10-05T06:14:25.811Z,4.03
2022-10-05T06:17:10.411Z,3.60
2022-10-05T06:19:38.969Z,3.60
2022-10-05T06:22:37.085Z,3.60
2022-10-05T06:25:12.877Z,3.83
2022-10-05T06:28:02.638Z,3.53
2022-10-05T06:30:55.973Z,3.50
2022-10-05T06:33:44.287Z,3.77
2022-10-05T06:36:38.640Z,3.97
2022-10-05T06:39:18.696Z,3.20
2022-10-05T06:42:06.251Z,3.10
2022-10-05T06:44:41.855Z,3.60
2022-10-05T06:47:18.004Z,3.70
2022-10-05T06:50:16.419Z,3.73
2022-10-05T06:52:55.128Z,4.10
2022-10-05T06:55:21.903Z,5.40
2022-10-05T06:58:07.841Z,3.60
2022-10-05T07:01:00.802Z,3.70
2022-10-05T07:04:15.441Z,3.37
2022-10-05T07:06:58.497Z,4.70
2022-10-05T07:10:04.604Z,4.00
2022-10-05T07:12:31.322Z,4.20
2022-10-05T07:15:29.434Z,3.93
2022-10-05T07:18:14.280Z,4.10
2022-10-05T07:21:17.496Z,3.87
2022-10-05T07:23:52.670Z,4.07
2022-10-05T07:26:33.053Z,4.10
2022-10-05T07:29:18.433Z,3.80
2022-10-05T07:31:53.987Z,3.63
2022-10-05T07:34:30.031Z,3.07
2022-10-05T07:37:26.083Z,2.87
2022-10-05T07:40:23.620Z,3.10
2022-10-05T07:43:06.130Z,2.43
2022-10-05T07:46:09.625Z,3.33
2022-10-05T07:48:55.282Z,2.67
2022-10-05T07:51:28.987Z,2.67
2022-10-05T07:53:58.763Z,2.70
2022-10-05T07:56:39.436Z,2.47
2022-10-05T07:59:30.310Z,2.30
2022-10-05T08:02:06.968Z,2.17
2022-10-05T08:04:51.427Z,2.30
2022-10-05T08:07:18.390Z,2.40
2022-10-05T08:10:17.134Z,2.50
2022-10-05T08:12:59.086Z,2.17
2022-10-05T08:15:41.502Z,2.30
2022-10-05T08:18:42.545Z,2.30
2022-10-05T08:21:13.608Z,2.57
2022-10-05T08:24:34.235Z,2.10
2022-10-05T08:27:19.410Z,2.33
2022-10-05T08:30:15.330Z,2.43
2022-10-05T08:33:10.312Z,2.50
2022-10-05T08:35:43.878Z,2.93
2022-10-05T08:38:16.802Z,3.50
2022-10-05T08:41:14.828Z,3.43
2022-10-05T08:43:50.424Z,3.40
2022-10-05T08:46:38.410Z,3.63
2022-10-05T08:49:05.238Z,3.10
2022-10-05T08:51:35.879Z,3.40
2022-10-05T08:54:20.468Z,3.33
2022-10-05T08:57:05.614Z,3.57
2022-10-05T09:00:13.743Z,3.37
2022-10-05T09:03:11.581Z,3.40
2022-10-05T09:05:57.981Z,3.83
2022-10-05T09:08:33.536Z,3.23
2022-10-05T09:11:40.649Z,3.80
2022-10-05T09:14:17.715Z,3.17
2022-10-05T09:17:02.889Z,3.40
2022-10-05T09:19:52.925Z,2.70
2022-10-05T09:22:36.390Z,3.50
2022-10-05T09:25:22.499Z,3.20
2022-10-05T09:27:54.700Z,2.97
2022-10-05T09:30:46.386Z,3.80
2022-10-05T09:33:38.159Z,3.23
2022-10-05T09:36:24.417Z,3.10
2022-10-05T09:38:56.852Z,3.43
2022-10-05T09:41:29.419Z,2.80
2022-10-05T09:44:18.803Z,2.50
2022-10-05T09:47:17.172Z,2.87
2022-10-05T09:49:55.733Z,3.13
2022-10-05T09:52:42.983Z,3.27
2022-10-05T09:55:18.978Z,3.10
2022-10-05T09:58:12.654Z,3.27
2022-10-05T10:01:09.978Z,3.60
2022-10-05T10:04:00.099Z,3.20
2022-10-05T10:06:41.780Z,3.77
2022-10-05T10:09:50.228Z,2.87
2022-10-05T10:12:22.916Z,3.30
2022-10-05T10:15:11.090Z,3.37
2022-10-05T10:17:47.058Z,3.27
2022-10-05T10:20:47.927Z,3.37
2022-10-05T10:23:39.651Z,3.13
2022-10-05T10:26:09.176Z,3.23
2022-10-05T10:28:52.176Z,3.57
2022-10-05T10:31:36.711Z,4.27
2022-10-05T10:34:29.593Z,3.00
2022-10-05T10:37:34.399Z,2.90
2022-10-05T10:40:26.052Z,2.70
2022-10-05T10:42:56.249Z,2.43
2022-10-05T10:45:28.752Z,2.40
2022-10-05T10:48:11.877Z,3.07
2022-10-05T10:51:03.538Z,2.83
2022-10-05T10:53:57.516Z,3.00
2022-10-05T10:56:49.018Z,3.60
2022-10-05T10:59:56.934Z,2.37
2022-10-05T11:02:56.557Z,3.17
2022-10-05T11:05:23.368Z,2.80
2022-10-05T11:08:27.323Z,2.10
2022-10-05T11:11:14.319Z,2.50
2022-10-05T11:14:05.033Z,2.20
2022-10-05T11:17:05.435Z,1.50
2022-10-05T11:20:10.517Z,2.00
2022-10-05T11:22:44.273Z,1.97
2022-10-05T11:25:44.244Z,1.80
2022-10-05T11:28:36.388Z,1.70
2022-10-05T11:31:18.190Z,1.90
2022-10-05T11:34:03.416Z,1.70
2022-10-05T11:37:00.931Z,1.63
2022-10-05T11:39:55.928Z,1.50
2022-10-05T11:42:40.773Z,1.53
2022-10-05T11:45:13.536Z,1.47
2022-10-05T11:47:59.129Z,1.93
2022-10-05T11:50:35.465Z,1.70
2022-10-05T11:53:13.881Z,1.27
2022-10-05T11:56:08.502Z,1.80
2022-10-05T11:58:43.772Z,1.87
2022-10-05T12:01:24.102Z,1.60
2022-10-05T12:03:57.751Z,1.47
2022-10-05T12:06:44.647Z,1.77
2022-10-05T12:09:26.530Z,1.93
2022-10-05T12:12:18.196Z,1.50
2022-10-05T12:14:54.519Z,1.60
2022-10-05T12:17:32.421Z,1.67
2022-10-05T12:20:07.223Z,1.67
2022-10-05T12:23:06.211Z,1.80
2022-10-05T12:25:45.431Z,1.87
2022-10-05T12:28:23.734Z,1.63
2022-10-05T12:31:18.617Z,7.47
2022-10-05T12:34:02.796Z,1.60
2022-10-05T12:37:03.973Z,2.40
2022-10-05T12:39:49.280Z,1.67
2022-10-05T12:42:41.996Z,1.43
2022-10-05T12:45:29.181Z,1.77
2022-10-05T12:48:26.897Z,1.63
2022-10-05T12:51:19.754Z,1.70
2022-10-05T12:54:13.372Z,1.30
2022-10-05T12:56:51.812Z,2.27
2022-10-05T12:59:34.931Z,1.43
2022-10-05T13:02:12.992Z,1.70
2022-10-05T13:05:10.632Z,2.37
2022-10-05T13:07:56.168Z,1.70
2022-10-05T13:10:42.519Z,2.67
2022-10-05T13:13:57.656Z,2.93
2022-10-05T13:16:31.129Z,4.33
2022-10-05T13:19:25.427Z,6.27
2022-10-05T13:22:21.126Z,1.80
2022-10-05T13:25:09.265Z,1.53
2022-10-05T13:27:46.148Z,1.30
2022-10-05T13:30:18.869Z,6.17
2022-10-05T13:33:15.518Z,1.30
2022-10-05T13:35:56.271Z,1.30
2022-10-05T13:38:54.942Z,1.53
2022-10-05T13:41:55.200Z,1.43
2022-10-05T13:44:40.496Z,1.37
2022-10-05T13:47:50.249Z,1.10
2022-10-05T13:50:31.192Z,1.03
2022-10-05T13:53:16.393Z,1.10
2022-10-05T13:55:56.330Z,1.10
2022-10-05T13:58:46.152Z,1.10
2022-10-05T14:01:24.456Z,1.13
2022-10-05T14:04:41.975Z,1.30
2022-10-05T14:07:37.037Z,1.10
2022-10-05T14:10:12.596Z,1.33
2022-10-05T14:12:45.760Z,1.20
2022-10-05T14:15:32.601Z,1.47
2022-10-05T14:17:59.553Z,1.20
2022-10-05T14:20:31.743Z,1.13
2022-10-05T14:23:02.867Z,1.20
2022-10-05T14:25:30.624Z,1.30
2022-10-05T14:28:20.432Z,1.30
2022-10-05T14:31:11.119Z,1.30
2022-10-05T14:33:38.349Z,1.60
2022-10-05T14:36:16.228Z,1.40
2022-10-05T14:38:57.977Z,1.20
2022-10-05T14:41:28.233Z,1.43
2022-10-05T14:44:05.459Z,1.83
2022-10-05T14:46:33.041Z,1.30
2022-10-05T14:49:23.089Z,1.57
2022-10-05T14:51:51.513Z,1.30
2022-10-05T14:55:00.265Z,1.23
2022-10-05T14:57:52.836Z,1.40
2022-10-05T15:00:19.758Z,1.23
2022-10-05T15:03:10.935Z,1.40
2022-10-05T15:05:47.134Z,2.20
2022-10-05T15:08:20.275Z,1.50
2022-10-05T15:10:56.566Z,1.10
2022-10-05T15:13:29.308Z,2.03
2022-10-05T15:16:03.095Z,1.23
2022-10-05T15:18:57.715Z,1.20
2022-10-05T15:21:42.363Z,1.00
2022-10-05T15:25:04.540Z,1.00
2022-10-05T15:27:49.358Z,1.40
2022-10-05T15:30:18.419Z,1.47
2022-10-05T15:33:05.189Z,1.60
2022-10-05T15:35:56.461Z,1.33
2022-10-05T15:38:25.719Z,1.20
2022-10-05T15:41:11.282Z,1.17
2022-10-05T15:44:01.991Z,1.10
2022-10-05T15:46:56.411Z,1.50
2022-10-05T15:49:33.859Z,1.30
2022-10-05T15:52:17.711Z,1.10
2022-10-05T15:55:06.038Z,1.23
2022-10-05T15:57:52.111Z,1.23
2022-10-05T16:00:23.053Z,1.20
2022-10-05T16:03:23.403Z,1.13
2022-10-05T16:06:33.512Z,1.30
2022-10-05T16:09:27.741Z,1.20
2022-10-05T16:12:15.404Z,1.23
2022-10-05T16:14:54.468Z,1.23
2022-10-05T16:17:47.952Z,1.20
2022-10-05T16:20:41.107Z,1.27
2022-10-05T16:23:30.691Z,1.30
2022-10-05T16:26:38.727Z,1.30
2022-10-05T16:29:29.381Z,1.20
2022-10-05T16:32:03.098Z,1.40
2022-10-05T16:35:10.791Z,1.57
2022-10-05T16:38:02.330Z,1.37
2022-10-05T16:40:46.833Z,1.20
2022-10-05T16:43:22.649Z,1.37
2022-10-05T16:46:06.868Z,1.53
2022-10-05T16:48:52.435Z,1.53
2022-10-05T16:51:19.369Z,1.40
2022-10-05T16:53:54.479Z,1.10
2022-10-05T16:56:27.077Z,1.40
2022-10-05T16:59:19.317Z,1.47
2022-10-05T17:02:22.630Z,1.57
2022-10-05T17:05:17.677Z,1.33
2022-10-05T17:07:56.820Z,1.60
2022-10-05T17:10:54.588Z,1.63
2022-10-05T17:13:39.464Z,1.40
2022-10-05T17:16:30.317Z,1.57
2022-10-05T17:19:32.777Z,1.43
2022-10-05T17:22:20.995Z,1.40
2022-10-05T17:25:09.647Z,1.30
2022-10-05T17:27:52.962Z,1.50
2022-10-05T17:30:37.668Z,1.43
2022-10-05T17:33:21.246Z,1.80
2022-10-05T17:36:04.585Z,1.30
2022-10-05T17:38:31.293Z,2.70
2022-10-05T17:41:00.826Z,1.30
2022-10-05T17:43:34.758Z,1.43
2022-10-05T17:46:02.683Z,2.23
2022-10-05T17:48:44.213Z,1.60
2022-10-05T17:51:55.718Z,1.50
2022-10-05T17:54:46.931Z,1.50
2022-10-05T17:57:19.236Z,1.70
2022-10-05T18:00:29.334Z,1.60
2022-10-05T18:02:57.506Z,1.57
2022-10-05T18:05:29.178Z,1.30
2022-10-05T18:08:17.646Z,1.50
2022-10-05T18:11:17.037Z,1.50
2022-10-05T18:13:50.043Z,1.50
2022-10-05T18:16:54.650Z,1.47
2022-10-05T18:19:22.562Z,2.03
2022-10-05T18:22:23.849Z,1.53
2022-10-05T18:25:05.819Z,1.70
2022-10-05T18:27:38.167Z,1.80
2022-10-05T18:30:23.146Z,1.80
2022-10-05T18:33:09.612Z,2.20
2022-10-05T18:36:09.811Z,2.13
2022-10-05T18:38:53.058Z,1.70
2022-10-05T18:41:48.340Z,1.60
2022-10-05T18:44:33.484Z,2.10
2022-10-05T18:47:25.513Z,1.63
2022-10-05T18:50:22.753Z,1.50
2022-10-05T18:53:00.669Z,2.10
2022-10-05T18:55:36.109Z,1.60
2022-10-05T18:58:26.319Z,1.60
2022-10-05T19:01:17.594Z,1.77
2022-10-05T19:04:22.522Z,1.80
2022-10-05T19:06:49.199Z,1.70
2022-10-05T19:09:21.540Z,2.87
2022-10-05T19:12:15.103Z,1.90
2022-10-05T19:14:41.735Z,2.10
2022-10-05T19:17:25.690Z,2.10
2022-10-05T19:20:17.391Z,1.97
2022-10-05T19:23:17.866Z,2.07
2022-10-05T19:25:54.912Z,2.30
2022-10-05T19:28:49.368Z,3.43
2022-10-05T19:31:40.450Z,2.07
2022-10-05T19:34:38.205Z,1.60
2022-10-05T19:37:13.984Z,1.57
2022-10-05T19:39:49.937Z,2.30
2022-10-05T19:42:32.336Z,1.80
2022-10-05T19:45:25.998Z,1.83
2022-10-05T19:48:14.422Z,2.07
2022-10-05T19:50:59.266Z,1.90
2022-10-05T19:53:36.432Z,2.33
2022-10-05T19:56:21.452Z,2.30
2022-10-05T19:58:50.029Z,2.40
2022-10-05T20:01:25.337Z,2.03
2022-10-05T20:03:53.360Z,2.10
2022-10-05T20:06:22.281Z,2.27
2022-10-05T20:08:51.510Z,2.07
2022-10-05T20:11:23.264Z,2.40
2022-10-05T20:13:53.250Z,2.00
2022-10-05T20:16:40.484Z,2.37
2022-10-05T20:19:51.964Z,2.20
2022-10-05T20:22:40.808Z,2.23
2022-10-05T20:25:17.503Z,1.97
2022-10-05T20:27:49.767Z,2.30
2022-10-05T20:30:25.321Z,2.20
2022-10-05T20:32:57.528Z,2.00
2022-10-05T20:35:27.773Z,1.90
2022-10-05T20:37:59.433Z,1.97
2022-10-05T20:40:29.064Z,2.00
2022-10-05T20:42:59.148Z,2.13
2022-10-05T20:45:26.158Z,1.93
2022-10-05T20:47:52.983Z,2.63
2022-10-05T20:50:22.873Z,2.30
2022-10-05T20:52:49.884Z,2.17
2022-10-05T20:55:16.933Z,2.37
2022-10-05T20:57:45.696Z,1.80
2022-10-05T21:00:13.801Z,2.00
2022-10-05T21:02:40.754Z,2.83
2022-10-05T21:05:07.987Z,2.10
2022-10-05T21:07:35.124Z,1.87
2022-10-05T21:10:03.747Z,2.03
2022-10-05T21:12:30.753Z,1.80
2022-10-05T21:14:59.518Z,1.60
2022-10-05T21:17:27.394Z,1.60
2022-10-05T21:19:54.075Z,1.27
2022-10-05T21:22:20.782Z,1.77
2022-10-05T21:24:48.392Z,1.83
2022-10-05T21:27:15.115Z,1.47
2022-10-05T21:29:42.095Z,1.80
2022-10-05T21:32:11.789Z,1.13
2022-10-05T21:34:39.259Z,1.60
2022-10-05T21:37:06.575Z,1.33
2022-10-05T21:39:34.621Z,1.20
2022-10-05T21:42:01.676Z,1.07
2022-10-05T21:44:28.418Z,1.40
2022-10-05T21:46:56.263Z,1.30
2022-10-05T21:49:23.807Z,1.40
2022-10-05T21:51:50.609Z,1.10
2022-10-05T21:54:21.271Z,1.20
2022-10-05T21:56:54.889Z,0.90
2022-10-05T21:59:26.515Z,1.33
2022-10-05T22:01:53.198Z,1.10
2022-10-05T22:04:20.227Z,0.80
2022-10-05T22:06:47.435Z,0.70
2022-10-05T22:09:14.176Z,0.80
2022-10-05T22:11:40.902Z,1.00
2022-10-05T22:14:07.770Z,0.80
2022-10-05T22:16:38.149Z,0.70
2022-10-05T22:19:06.979Z,0.80
2022-10-05T22:21:41.459Z,0.83
2022-10-05T22:24:11.439Z,0.77
2022-10-05T22:26:38.770Z,0.70
2022-10-05T22:29:05.532Z,1.00
2022-10-05T22:31:32.467Z,0.83
2022-10-05T22:33:59.306Z,0.50
2022-10-05T22:36:26.125Z,1.00
2022-10-05T22:38:52.780Z,0.90
2022-10-05T22:41:19.653Z,0.93
2022-10-05T22:43:50.771Z,1.00
2022-10-05T22:46:18.290Z,1.03
2022-10-05T22:48:45.172Z,0.73
2022-10-05T22:51:12.088Z,0.80
2022-10-05T22:53:38.831Z,0.90
2022-10-05T22:56:10.892Z,1.07
2022-10-05T22:58:37.680Z,1.17
2022-10-05T23:01:08.573Z,1.23
2022-10-05T23:03:35.515Z,1.13
2022-10-05T23:06:05.287Z,1.13
2022-10-05T23:08:33.212Z,0.83
2022-10-05T23:11:11.591Z,1.00
2022-10-05T23:13:38.281Z,0.70
2022-10-05T23:16:16.194Z,1.03
2022-10-05T23:18:43.808Z,0.90
2022-10-05T23:21:11.433Z,0.73
2022-10-05T23:23:40.488Z,1.00
2022-10-05T23:26:09.422Z,0.90
2022-10-05T23:28:36.551Z,1.10
2022-10-05T23:31:07.003Z,1.33
2022-10-05T23:33:34.692Z,1.00
2022-10-05T23:36:09.588Z,0.90
2022-10-05T23:38:36.629Z,1.20
2022-10-05T23:41:04.258Z,0.90
2022-10-05T23:43:33.260Z,1.13
2022-10-05T23:46:00.700Z,0.90
2022-10-05T23:48:28.234Z,1.00
2022-10-05T23:50:55.774Z,0.83
2022-10-05T23:53:23.220Z,1.20
2022-10-05T23:55:54.084Z,1.00
2022-10-05T23:58:21.854Z,1.00
